createdAt,value
2023-03-02T00:03:04.764Z,57.50
2023-03-02T00:08:10.134Z,57.66
2023-03-02T00:13:14.178Z,57.84
2023-03-02T00:18:17.502Z,57.81
2023-03-02T00:23:20.767Z,57.92
2023-03-02T00:28:24.103Z,58.07
2023-03-02T00:33:27.291Z,58.24
2023-03-02T00:38:30.487Z,58.32
2023-03-02T00:43:33.703Z,58.28
2023-03-02T00:48:37.093Z,58.42
2023-03-02T00:53:41.255Z,58.20
2023-03-02T00:58:45.347Z,58.18
2023-03-02T01:03:48.820Z,58.18
2023-03-02T01:08:53.007Z,58.59
2023-03-02T01:13:56.339Z,58.39
2023-03-02T01:18:59.592Z,58.07
2023-03-02T01:24:02.986Z,58.06
2023-03-02T01:29:06.926Z,58.10
2023-03-02T01:34:10.163Z,58.31
2023-03-02T01:39:17.256Z,58.58
2023-03-02T01:44:41.581Z,58.52
2023-03-02T01:49:50.051Z,58.59
2023-03-02T01:54:56.669Z,58.72
2023-03-02T02:00:09.057Z,59.10
2023-03-02T02:05:23.260Z,59.02
2023-03-02T02:10:27.716Z,58.98
2023-03-02T02:15:31.053Z,58.84
2023-03-02T02:20:41.317Z,58.79
2023-03-02T02:26:13.903Z,58.75
2023-03-02T02:31:26.963Z,59.05
2023-03-02T02:36:35.435Z,58.90
2023-03-02T02:41:43.905Z,59.01
2023-03-02T02:46:46.960Z,58.70
2023-03-02T02:51:50.180Z,58.39
2023-03-02T02:56:54.529Z,58.89
2023-03-02T03:01:58.913Z,59.16
2023-03-02T03:07:06.159Z,58.66
2023-03-02T03:12:24.386Z,58.69
2023-03-02T03:17:29.137Z,59.09
2023-03-02T03:22:38.433Z,59.48
2023-03-02T03:27:43.290Z,59.63
2023-03-02T03:32:46.730Z,59.78
2023-03-02T03:37:52.450Z,59.56
2023-03-02T03:42:56.012Z,59.36
2023-03-02T03:47:59.616Z,59.51
2023-03-02T03:53:04.017Z,59.63
2023-03-02T03:58:07.839Z,59.58
2023-03-02T04:03:11.469Z,59.45
2023-03-02T04:08:14.819Z,59.96
2023-03-02T04:13:18.174Z,59.88
2023-03-02T04:18:21.550Z,59.87
2023-03-02T04:23:24.888Z,59.71
2023-03-02T04:28:28.209Z,60.10
2023-03-02T04:33:32.176Z,60.13
2023-03-02T04:38:35.453Z,59.98
2023-03-02T04:43:38.943Z,60.12
2023-03-02T04:48:42.184Z,60.10
2023-03-02T04:53:45.384Z,60.10
2023-03-02T04:58:49.574Z,60.22
2023-03-02T05:03:53.383Z,60.12
2023-03-02T05:08:59.938Z,60.22
2023-03-02T05:14:06.469Z,60.41
2023-03-02T05:19:12.290Z,60.28
2023-03-02T05:24:15.734Z,60.25
2023-03-02T05:29:19.000Z,60.10
2023-03-02T05:34:22.288Z,60.06
2023-03-02T05:39:25.540Z,60.24
2023-03-02T05:44:28.659Z,60.36
2023-03-02T05:49:33.151Z,60.52
2023-03-02T05:54:36.854Z,60.43
2023-03-02T05:59:40.168Z,60.43
2023-03-02T06:04:44.728Z,60.65
2023-03-02T06:09:48.560Z,60.41
2023-03-02T06:14:53.614Z,60.42
2023-03-02T06:20:11.431Z,60.32
2023-03-02T06:25:18.822Z,60.41
2023-03-02T06:30:24.500Z,60.45
2023-03-02T06:36:03.630Z,61.50
2023-03-02T06:41:07.455Z,68.41
2023-03-02T06:46:11.050Z,52.70
2023-03-02T06:51:14.306Z,48.98
2023-03-02T06:56:17.795Z,50.09
2023-03-02T07:01:21.257Z,51.07
2023-03-02T07:06:24.457Z,51.79
2023-03-02T07:11:27.663Z,52.58
2023-03-02T07:16:31.439Z,53.12
2023-03-02T07:21:34.963Z,53.94
2023-03-02T07:26:38.375Z,54.25
2023-03-02T07:31:44.385Z,54.73
2023-03-02T07:36:48.129Z,55.00
2023-03-02T07:41:51.244Z,55.21
2023-03-02T07:46:57.235Z,55.39
2023-03-02T07:52:00.466Z,55.40
2023-03-02T07:57:04.027Z,55.44
2023-03-02T08:02:07.605Z,55.36
2023-03-02T08:07:10.880Z,55.49
2023-03-02T08:12:14.484Z,55.52
2023-03-02T08:17:17.797Z,55.19
2023-03-02T08:22:21.606Z,54.97
2023-03-02T08:27:24.865Z,54.92
2023-03-02T08:32:28.181Z,54.73
2023-03-02T08:37:31.820Z,54.25
2023-03-02T08:42:35.106Z,53.72
2023-03-02T08:47:38.589Z,53.26
2023-03-02T08:52:41.828Z,53.48
2023-03-02T08:57:45.951Z,53.36
2023-03-02T09:02:49.212Z,52.88
2023-03-02T09:07:52.523Z,52.67
2023-03-02T09:12:55.673Z,52.07
2023-03-02T09:17:58.918Z,51.67
2023-03-02T09:23:02.139Z,51.29
2023-03-02T09:28:05.676Z,51.81
2023-03-02T09:33:09.228Z,53.41
2023-03-02T09:38:16.344Z,51.08
2023-03-02T09:43:45.625Z,49.83
2023-03-02T09:49:10.662Z,48.78
2023-03-02T09:54:19.607Z,48.47
2023-03-02T09:59:27.102Z,48.25
2023-03-02T10:04:39.101Z,47.68
2023-03-02T10:09:43.626Z,47.17
2023-03-02T10:14:57.515Z,46.74
2023-03-02T10:20:06.051Z,46.29
2023-03-02T10:25:31.581Z,46.00
2023-03-02T10:30:37.478Z,43.90
2023-03-02T10:35:50.195Z,43.17
2023-03-02T10:41:06.874Z,42.56
2023-03-02T10:46:12.654Z,42.29
2023-03-02T10:51:27.414Z,42.68
2023-03-02T10:56:32.394Z,41.91
2023-03-02T11:01:36.125Z,41.12
2023-03-02T11:06:39.546Z,40.77
2023-03-02T11:11:52.104Z,40.21
2023-03-02T11:16:56.912Z,39.14
2023-03-02T11:22:54.232Z,39.78
2023-03-02T11:28:05.832Z,38.48
2023-03-02T11:33:18.444Z,37.92
2023-03-02T11:38:41.747Z,39.87
2023-03-02T11:43:44.945Z,38.64
2023-03-02T11:48:53.046Z,36.92
2023-03-02T11:54:19.530Z,36.52
2023-03-02T11:59:26.528Z,36.31
2023-03-02T12:04:38.799Z,36.30
2023-03-02T12:09:43.038Z,36.44
2023-03-02T12:14:46.470Z,37.05
2023-03-02T12:19:55.919Z,36.84
2023-03-02T12:25:19.321Z,35.62
2023-03-02T12:30:28.149Z,36.34
2023-03-02T12:35:34.309Z,36.16
2023-03-02T12:40:57.679Z,36.78
2023-03-02T12:46:32.632Z,36.64
2023-03-02T12:52:22.173Z,36.78
2023-03-02T12:57:28.003Z,37.04
2023-03-02T13:02:36.419Z,37.45
2023-03-02T13:07:50.656Z,37.85
2023-03-02T13:12:54.127Z,37.21
2023-03-02T13:18:00.220Z,37.30
2023-03-02T13:23:03.948Z,36.34
2023-03-02T13:28:34.827Z,36.53
2023-03-02T13:33:44.924Z,36.04
2023-03-02T13:38:52.649Z,36.06
2023-03-02T13:43:57.279Z,35.74
2023-03-02T13:49:11.006Z,35.61
2023-03-02T13:54:17.400Z,35.58
2023-03-02T13:59:22.100Z,35.99
2023-03-02T14:04:25.624Z,37.20
2023-03-02T14:09:29.286Z,36.57
2023-03-02T14:14:38.038Z,36.68
2023-03-02T14:19:41.599Z,37.00
2023-03-02T14:24:46.371Z,37.41
2023-03-02T14:29:49.684Z,38.22
2023-03-02T14:34:53.087Z,38.65
2023-03-02T14:39:57.100Z,39.51
2023-03-02T14:45:00.511Z,39.85
2023-03-02T14:50:05.626Z,39.99
2023-03-02T14:55:32.781Z,40.26
2023-03-02T15:00:36.703Z,40.34
2023-03-02T15:05:42.167Z,40.68
2023-03-02T15:10:51.111Z,40.90
2023-03-02T15:15:54.712Z,41.24
2023-03-02T15:20:58.116Z,41.57
2023-03-02T15:26:04.826Z,41.69
2023-03-02T15:31:14.462Z,41.96
2023-03-02T15:36:18.159Z,42.10
2023-03-02T15:41:21.603Z,42.24
2023-03-02T15:46:25.420Z,42.58
2023-03-02T15:51:28.711Z,42.72
2023-03-02T15:56:42.306Z,42.97
2023-03-02T16:01:46.057Z,43.20
2023-03-02T16:06:49.410Z,43.49
2023-03-02T16:11:53.098Z,43.63
2023-03-02T16:16:56.732Z,43.92
2023-03-02T16:22:00.168Z,44.19
2023-03-02T16:27:05.212Z,44.40
2023-03-02T16:32:09.229Z,44.57
2023-03-02T16:37:12.570Z,44.78
2023-03-02T16:42:16.751Z,44.94
2023-03-02T16:47:20.237Z,45.19
2023-03-02T16:52:24.291Z,45.40
2023-03-02T16:57:27.765Z,45.62
2023-03-02T17:02:31.169Z,45.88
2023-03-02T17:07:34.980Z,46.26
2023-03-02T17:12:38.480Z,46.30
2023-03-02T17:17:42.982Z,46.42
2023-03-02T17:22:47.044Z,46.67
2023-03-02T17:27:50.313Z,46.90
2023-03-02T17:32:53.769Z,47.08
2023-03-02T17:37:57.208Z,47.23
2023-03-02T17:43:00.788Z,47.38
2023-03-02T17:48:05.058Z,47.70
2023-03-02T17:53:08.659Z,48.33
2023-03-02T17:58:12.166Z,48.60
2023-03-02T18:03:15.605Z,48.73
2023-03-02T18:08:18.790Z,49.13
2023-03-02T18:13:22.278Z,49.53
2023-03-02T18:18:25.539Z,49.85
2023-03-02T18:23:29.325Z,50.26
2023-03-02T18:28:32.654Z,50.61
2023-03-02T18:33:35.725Z,50.95
2023-03-02T18:38:38.847Z,51.35
2023-03-02T18:43:43.596Z,51.77
2023-03-02T18:48:50.319Z,52.10
2023-03-02T18:53:54.784Z,52.39
2023-03-02T18:58:57.982Z,52.85
2023-03-02T19:04:02.622Z,53.32
2023-03-02T19:09:06.480Z,53.52
2023-03-02T19:14:10.387Z,53.68
2023-03-02T19:19:14.176Z,53.75
2023-03-02T19:24:17.499Z,55.14
2023-03-02T19:29:22.306Z,54.60
2023-03-02T19:34:25.422Z,54.54
2023-03-02T19:39:28.654Z,54.57
2023-03-02T19:44:33.761Z,54.80
2023-03-02T19:49:37.914Z,55.09
2023-03-02T19:54:43.689Z,55.09
2023-03-02T19:59:46.967Z,55.18
2023-03-02T20:04:51.421Z,55.27
2023-03-02T20:09:54.808Z,55.46
2023-03-02T20:14:58.330Z,55.58
2023-03-02T20:20:03.961Z,55.72
2023-03-02T20:25:09.121Z,55.96
2023-03-02T20:30:22.599Z,55.82
2023-03-02T20:35:29.956Z,56.15
2023-03-02T20:40:34.364Z,56.47
2023-03-02T20:45:37.838Z,56.60
2023-03-02T20:50:42.660Z,56.66
2023-03-02T20:55:46.289Z,56.79
2023-03-02T21:00:49.605Z,56.90
2023-03-02T21:05:52.856Z,57.15
2023-03-02T21:10:56.661Z,57.43
2023-03-02T21:16:00.402Z,57.50
2023-03-02T21:21:04.227Z,57.51
2023-03-02T21:26:11.882Z,57.61
2023-03-02T21:31:18.486Z,57.72
2023-03-02T21:36:24.614Z,57.95
2023-03-02T21:41:28.298Z,58.00
2023-03-02T21:46:34.949Z,57.99
2023-03-02T21:51:38.509Z,58.06
2023-03-02T21:56:43.303Z,58.06
2023-03-02T22:01:46.728Z,58.10
2023-03-02T22:06:49.981Z,58.25
2023-03-02T22:11:53.323Z,58.20
2023-03-02T22:16:58.592Z,58.43
2023-03-02T22:22:03.602Z,58.50
2023-03-02T22:27:22.030Z,58.61
2023-03-02T22:32:30.750Z,58.62
2023-03-02T22:37:34.974Z,58.74
2023-03-02T22:42:38.319Z,59.05
2023-03-02T22:47:48.468Z,59.09
2023-03-02T22:52:53.699Z,59.11
2023-03-02T22:57:57.021Z,59.22
2023-03-02T23:03:00.339Z,59.56
2023-03-02T23:08:23.654Z,59.61
2023-03-02T23:13:40.069Z,59.67
2023-03-02T23:18:44.290Z,59.74
2023-03-02T23:23:49.401Z,59.71
2023-03-02T23:28:52.608Z,59.45
2023-03-02T23:33:55.830Z,59.56
2023-03-02T23:38:59.549Z,59.77
2023-03-02T23:44:03.593Z,60.08
2023-03-02T23:49:07.037Z,59.99
2023-03-02T23:54:10.464Z,59.96
2023-03-02T23:59:13.940Z,59.77
